createdAt,value
2023-05-01T00:00:31.858Z,67.42
2023-05-01T00:03:14.561Z,67.59
2023-05-01T00:05:42.391Z,67.39
2023-05-01T00:08:10.873Z,67.46
2023-05-01T00:10:38.993Z,67.25
2023-05-01T00:13:06.715Z,67.15
2023-05-01T00:15:34.384Z,67.00
2023-05-01T00:18:02.085Z,67.21
2023-05-01T00:20:29.883Z,67.43
2023-05-01T00:22:58.084Z,67.63
2023-05-01T00:25:25.794Z,67.85
2023-05-01T00:27:53.515Z,68.02
2023-05-01T00:30:21.153Z,67.98
2023-05-01T00:32:48.793Z,67.96
2023-05-01T00:35:16.639Z,67.92
2023-05-01T00:37:44.224Z,67.87
2023-05-01T00:40:15.462Z,67.83
2023-05-01T00:42:43.127Z,67.96
2023-05-01T00:45:11.150Z,68.08
2023-05-01T00:47:38.893Z,68.05
2023-05-01T00:50:07.327Z,67.99
2023-05-01T00:52:34.948Z,68.00
2023-05-01T00:55:02.641Z,67.68
2023-05-01T00:57:30.569Z,67.92
2023-05-01T00:59:58.456Z,68.18
2023-05-01T01:02:27.330Z,68.04
2023-05-01T01:04:55.238Z,68.18
2023-05-01T01:07:40.287Z,68.19
2023-05-01T01:10:34.280Z,68.17
2023-05-01T01:13:20.844Z,68.46
2023-05-01T01:15:58.329Z,68.69
2023-05-01T01:18:40.477Z,68.86
2023-05-01T01:21:38.929Z,69.03
2023-05-01T01:24:42.260Z,68.90
2023-05-01T01:27:36.084Z,68.75
2023-05-01T01:30:22.643Z,68.95
2023-05-01T01:33:09.342Z,68.84
2023-05-01T01:35:37.019Z,68.89
2023-05-01T01:38:11.566Z,68.93
2023-05-01T01:40:43.071Z,69.13
2023-05-01T01:43:13.563Z,69.10
2023-05-01T01:45:42.271Z,69.27
2023-05-01T01:48:12.277Z,69.38
2023-05-01T01:50:39.886Z,69.38
2023-05-01T01:53:07.504Z,69.42
2023-05-01T01:55:35.224Z,69.54
2023-05-01T01:58:03.263Z,69.66
2023-05-01T02:00:30.865Z,69.65
2023-05-01T02:02:59.386Z,69.88
2023-05-01T02:05:27.098Z,69.67
2023-05-01T02:07:54.667Z,69.46
2023-05-01T02:10:22.875Z,69.37
2023-05-01T02:12:51.657Z,69.40
2023-05-01T02:15:19.419Z,69.40
2023-05-01T02:17:47.072Z,69.44
2023-05-01T02:20:15.382Z,69.59
2023-05-01T02:22:43.665Z,69.39
2023-05-01T02:25:12.637Z,69.64
2023-05-01T02:28:02.870Z,69.69
2023-05-01T02:30:30.555Z,70.15
2023-05-01T02:32:58.176Z,70.33
2023-05-01T02:35:26.331Z,70.52
2023-05-01T02:37:53.967Z,70.52
2023-05-01T02:40:22.007Z,70.44
2023-05-01T02:42:49.641Z,70.21
2023-05-01T02:45:21.532Z,70.19
2023-05-01T02:47:52.071Z,70.10
2023-05-01T02:50:19.925Z,70.20
2023-05-01T02:52:47.574Z,70.04
2023-05-01T02:55:15.553Z,70.14
2023-05-01T02:57:43.310Z,70.18
2023-05-01T03:00:13.995Z,70.07
2023-05-01T03:02:42.399Z,70.40
2023-05-01T03:05:10.105Z,70.44
2023-05-01T03:07:37.718Z,70.47
2023-05-01T03:10:07.888Z,70.57
2023-05-01T03:12:35.498Z,70.71
2023-05-01T03:15:03.582Z,70.49
2023-05-01T03:17:31.473Z,70.40
2023-05-01T03:19:59.198Z,70.40
2023-05-01T03:22:29.590Z,70.35
2023-05-01T03:24:57.248Z,70.31
2023-05-01T03:27:24.876Z,70.55
2023-05-01T03:29:52.912Z,70.55
2023-05-01T03:32:20.673Z,70.75
2023-05-01T03:34:48.482Z,70.81
2023-05-01T03:37:16.299Z,70.88
2023-05-01T03:39:43.903Z,70.68
2023-05-01T03:42:11.478Z,70.99
2023-05-01T03:44:39.119Z,70.88
2023-05-01T03:47:06.712Z,71.01
2023-05-01T03:49:34.307Z,71.11
2023-05-01T03:52:01.934Z,70.98
2023-05-01T03:54:29.542Z,71.31
2023-05-01T03:56:57.157Z,71.12
2023-05-01T03:59:25.085Z,71.03
2023-05-01T04:01:53.026Z,71.07
2023-05-01T04:04:20.848Z,71.40
2023-05-01T04:06:51.959Z,71.40
2023-05-01T04:09:19.743Z,71.61
2023-05-01T04:11:47.476Z,71.97
2023-05-01T04:14:15.069Z,71.94
2023-05-01T04:16:43.377Z,72.25
2023-05-01T04:19:10.964Z,72.38
2023-05-01T04:21:38.955Z,72.48
2023-05-01T04:24:06.640Z,72.34
2023-05-01T04:26:34.279Z,71.99
2023-05-01T04:29:01.913Z,72.19
2023-05-01T04:31:29.624Z,72.18
2023-05-01T04:33:58.589Z,72.21
2023-05-01T04:36:26.211Z,72.14
2023-05-01T04:38:53.782Z,72.33
2023-05-01T04:41:21.769Z,72.11
2023-05-01T04:43:49.484Z,72.31
2023-05-01T04:46:17.183Z,72.57
2023-05-01T04:48:44.892Z,72.56
2023-05-01T04:51:12.754Z,72.44
2023-05-01T04:53:40.379Z,72.86
2023-05-01T04:56:08.026Z,73.05
2023-05-01T04:58:35.647Z,73.27
2023-05-01T05:01:03.361Z,73.47
2023-05-01T05:03:31.058Z,73.69
2023-05-01T05:05:58.996Z,73.74
2023-05-01T05:08:26.689Z,73.82
2023-05-01T05:11:00.800Z,73.86
2023-05-01T05:13:28.399Z,74.36
2023-05-01T05:15:56.387Z,74.53
2023-05-01T05:18:24.326Z,74.18
2023-05-01T05:20:52.128Z,73.92
2023-05-01T05:23:19.729Z,73.78
2023-05-01T05:25:47.456Z,73.44
2023-05-01T05:28:15.119Z,72.77
2023-05-01T05:30:43.399Z,73.21
2023-05-01T05:33:11.470Z,75.17
2023-05-01T05:35:39.193Z,74.65
2023-05-01T05:38:06.845Z,72.07
2023-05-01T05:40:34.467Z,70.59
2023-05-01T05:43:02.119Z,69.86
2023-05-01T05:45:29.686Z,69.67
2023-05-01T05:47:57.464Z,69.37
2023-05-01T05:50:25.253Z,68.94
2023-05-01T05:52:52.941Z,68.49
2023-05-01T05:55:20.695Z,68.63
2023-05-01T05:57:48.411Z,67.74
2023-05-01T06:00:17.324Z,67.65
2023-05-01T06:02:45.273Z,67.02
2023-05-01T06:05:13.680Z,65.49
2023-05-01T06:07:41.424Z,65.40
2023-05-01T06:10:09.757Z,65.94
2023-05-01T06:12:40.387Z,63.36
2023-05-01T06:15:16.838Z,62.15
2023-05-01T06:17:44.537Z,60.92
2023-05-01T06:20:14.427Z,60.69
2023-05-01T06:22:42.130Z,60.54
2023-05-01T06:25:10.115Z,60.17
2023-05-01T06:27:37.724Z,59.89
2023-05-01T06:30:05.948Z,60.09
2023-05-01T06:32:33.617Z,59.25
2023-05-01T06:35:01.292Z,58.85
2023-05-01T06:37:29.715Z,58.29
2023-05-01T06:39:57.570Z,58.68
2023-05-01T06:42:25.699Z,58.20
2023-05-01T06:44:53.303Z,58.11
2023-05-01T06:47:21.501Z,57.35
2023-05-01T06:49:49.334Z,56.30
2023-05-01T06:52:16.917Z,56.60
2023-05-01T06:54:44.508Z,55.50
2023-05-01T06:57:12.122Z,54.56
2023-05-01T06:59:40.234Z,53.94
2023-05-01T07:02:08.071Z,53.32
2023-05-01T07:04:35.871Z,52.94
2023-05-01T07:07:03.528Z,53.33
2023-05-01T07:09:31.408Z,51.72
2023-05-01T07:11:59.077Z,51.50
2023-05-01T07:14:26.681Z,50.52
2023-05-01T07:16:54.381Z,50.50
2023-05-01T07:19:22.015Z,50.76
2023-05-01T07:21:49.648Z,50.98
2023-05-01T07:24:17.314Z,50.57
2023-05-01T07:26:44.906Z,50.69
2023-05-01T07:29:13.342Z,50.12
2023-05-01T07:31:41.876Z,48.81
2023-05-01T07:34:09.640Z,48.71
2023-05-01T07:36:37.669Z,49.24
2023-05-01T07:39:06.690Z,49.23
2023-05-01T07:41:34.413Z,48.39
2023-05-01T07:44:02.307Z,48.40
2023-05-01T07:46:30.380Z,47.95
2023-05-01T07:49:00.976Z,47.40
2023-05-01T07:51:28.555Z,46.93
2023-05-01T07:53:56.151Z,46.10
2023-05-01T07:56:23.818Z,46.03
2023-05-01T07:58:51.448Z,46.40
2023-05-01T08:01:19.119Z,47.15
2023-05-01T08:03:48.688Z,46.13
2023-05-01T08:06:18.093Z,45.43
2023-05-01T08:08:45.959Z,45.44
2023-05-01T08:11:14.031Z,45.16
2023-05-01T08:13:41.640Z,44.91
2023-05-01T08:16:09.364Z,45.19
2023-05-01T08:18:38.492Z,45.68
2023-05-01T08:21:08.780Z,44.46
2023-05-01T08:23:36.658Z,44.40
2023-05-01T08:26:04.433Z,45.71
2023-05-01T08:28:34.503Z,44.31
2023-05-01T08:31:03.862Z,44.11
2023-05-01T08:33:31.550Z,43.10
2023-05-01T08:35:59.405Z,43.05
2023-05-01T08:38:27.038Z,43.57
2023-05-01T08:40:56.723Z,43.66
2023-05-01T08:43:25.332Z,43.28
2023-05-01T08:45:52.890Z,41.90
2023-05-01T08:48:20.655Z,41.52
2023-05-01T08:50:48.351Z,40.98
2023-05-01T08:53:16.444Z,42.01
2023-05-01T08:55:46.114Z,41.65
2023-05-01T08:58:13.920Z,41.73
2023-05-01T09:00:42.084Z,41.42
2023-05-01T09:03:11.791Z,41.64
2023-05-01T09:05:39.652Z,40.93
2023-05-01T09:08:07.298Z,41.67
2023-05-01T09:10:36.118Z,40.71
2023-05-01T09:13:07.005Z,41.25
2023-05-01T09:15:34.802Z,41.11
2023-05-01T09:18:03.782Z,38.88
2023-05-01T09:20:32.042Z,38.91
2023-05-01T09:23:00.021Z,39.51
2023-05-01T09:25:28.230Z,39.09
2023-05-01T09:27:57.266Z,39.88
2023-05-01T09:30:31.667Z,38.64
2023-05-01T09:33:12.068Z,37.83
2023-05-01T09:35:56.112Z,36.40
2023-05-01T09:38:24.967Z,34.74
2023-05-01T09:41:03.421Z,36.27
2023-05-01T09:43:31.915Z,35.77
2023-05-01T09:46:05.480Z,35.28
2023-05-01T09:48:35.809Z,34.49
2023-05-01T09:51:22.690Z,34.76
2023-05-01T09:53:50.490Z,35.52
2023-05-01T09:56:18.907Z,35.37
2023-05-01T09:58:47.241Z,35.56
2023-05-01T10:01:15.356Z,33.72
2023-05-01T10:03:44.513Z,32.60
2023-05-01T10:06:12.319Z,32.27
2023-05-01T10:08:47.676Z,31.90
2023-05-01T10:11:15.410Z,31.43
2023-05-01T10:13:42.998Z,30.54
2023-05-01T10:16:43.322Z,28.88
2023-05-01T10:19:11.247Z,29.99
2023-05-01T10:21:38.886Z,29.52
2023-05-01T10:24:07.950Z,29.50
2023-05-01T10:26:36.474Z,29.46
2023-05-01T10:29:04.307Z,28.43
2023-05-01T10:31:33.455Z,27.93
2023-05-01T10:34:03.772Z,25.79
2023-05-01T10:36:34.501Z,26.02
2023-05-01T10:39:02.135Z,26.08
2023-05-01T10:41:58.204Z,26.66
2023-05-01T10:44:27.269Z,26.48
2023-05-01T10:46:55.216Z,27.46
2023-05-01T10:49:23.221Z,26.09
2023-05-01T10:51:57.887Z,24.32
2023-05-01T10:54:26.992Z,23.39
2023-05-01T10:56:56.165Z,22.67
2023-05-01T10:59:23.873Z,23.58
2023-05-01T11:01:52.307Z,22.58
2023-05-01T11:04:22.808Z,22.41
2023-05-01T11:07:07.558Z,22.96
2023-05-01T11:09:51.338Z,22.03
2023-05-01T11:12:48.392Z,21.92
2023-05-01T11:15:32.562Z,21.62
2023-05-01T11:18:01.533Z,21.71
2023-05-01T11:20:29.264Z,22.22
2023-05-01T11:22:57.334Z,22.62
2023-05-01T11:25:27.713Z,23.12
2023-05-01T11:27:57.087Z,22.72
2023-05-01T11:30:24.708Z,23.27
2023-05-01T11:32:52.567Z,22.72
2023-05-01T11:35:24.180Z,22.02
2023-05-01T11:37:51.810Z,22.60
2023-05-01T11:40:20.281Z,21.77
2023-05-01T11:42:48.890Z,21.35
2023-05-01T11:45:19.800Z,21.58
2023-05-01T11:47:47.528Z,21.82
2023-05-01T11:50:15.555Z,21.34
2023-05-01T11:52:49.397Z,20.90
2023-05-01T11:55:16.980Z,21.50
2023-05-01T11:57:54.374Z,21.60
2023-05-01T12:00:38.248Z,20.20
2023-05-01T12:03:06.718Z,20.21
2023-05-01T12:05:38.652Z,20.53
2023-05-01T12:08:09.977Z,21.37
2023-05-01T12:10:38.433Z,21.29
2023-05-01T12:13:06.908Z,21.49
2023-05-01T12:15:36.217Z,20.55
2023-05-01T12:18:05.094Z,19.02
2023-05-01T12:20:40.389Z,18.38
2023-05-01T12:23:10.609Z,18.30
2023-05-01T12:25:39.554Z,18.43
2023-05-01T12:28:20.439Z,18.30
2023-05-01T12:30:49.125Z,19.17
2023-05-01T12:33:18.934Z,18.72
2023-05-01T12:35:47.938Z,17.88
2023-05-01T12:38:17.074Z,18.51
2023-05-01T12:40:55.187Z,18.62
2023-05-01T12:43:29.498Z,18.47
2023-05-01T12:45:57.147Z,18.29
2023-05-01T12:48:24.990Z,17.97
2023-05-01T12:50:55.249Z,17.03
2023-05-01T12:53:23.938Z,17.27
2023-05-01T12:55:53.230Z,17.66
2023-05-01T12:58:21.167Z,17.65
2023-05-01T13:00:49.900Z,17.71
2023-05-01T13:03:23.832Z,17.81
2023-05-01T13:06:02.330Z,17.73
2023-05-01T13:08:31.675Z,17.94
2023-05-01T13:11:01.185Z,17.31
2023-05-01T13:13:34.763Z,17.63
2023-05-01T13:16:10.510Z,16.41
2023-05-01T13:18:48.664Z,17.38
2023-05-01T13:21:18.542Z,17.04
2023-05-01T13:23:54.277Z,15.81
2023-05-01T13:26:33.012Z,17.12
2023-05-01T13:29:01.913Z,16.50
2023-05-01T13:31:30.129Z,16.44
2023-05-01T13:33:58.868Z,16.36
2023-05-01T13:36:27.555Z,16.75
2023-05-01T13:38:56.463Z,16.88
2023-05-01T13:41:26.221Z,16.58
2023-05-01T13:43:55.147Z,16.57
2023-05-01T13:46:23.493Z,16.40
2023-05-01T13:48:51.382Z,15.85
2023-05-01T13:51:24.806Z,16.08
2023-05-01T13:53:55.201Z,16.32
2023-05-01T13:56:22.948Z,16.35
2023-05-01T13:58:50.919Z,16.51
2023-05-01T14:01:23.603Z,16.75
2023-05-01T14:03:51.460Z,16.74
2023-05-01T14:06:20.194Z,16.60
2023-05-01T14:08:48.587Z,16.61
2023-05-01T14:11:16.869Z,17.17
2023-05-01T14:13:45.616Z,16.71
2023-05-01T14:16:33.544Z,16.87
2023-05-01T14:19:01.284Z,16.49
2023-05-01T14:21:29.125Z,16.95
2023-05-01T14:23:57.265Z,17.29
2023-05-01T14:26:25.109Z,17.40
2023-05-01T14:28:53.021Z,16.59
2023-05-01T14:31:27.530Z,16.76
2023-05-01T14:34:00.369Z,17.62
2023-05-01T14:36:31.099Z,17.33
2023-05-01T14:38:59.793Z,17.40
2023-05-01T14:41:27.588Z,17.49
2023-05-01T14:43:55.532Z,17.14
2023-05-01T14:46:31.139Z,17.14
2023-05-01T14:48:59.981Z,17.29
2023-05-01T14:51:28.611Z,16.66
2023-05-01T14:53:56.364Z,17.01
2023-05-01T14:56:24.113Z,17.55
2023-05-01T14:58:51.778Z,17.56
2023-05-01T15:01:19.873Z,17.28
2023-05-01T15:03:47.845Z,17.19
2023-05-01T15:06:15.786Z,17.50
2023-05-01T15:08:43.469Z,17.38
2023-05-01T15:11:13.986Z,17.60
2023-05-01T15:13:42.743Z,17.14
2023-05-01T15:16:11.146Z,17.93
2023-05-01T15:18:39.123Z,18.28
2023-05-01T15:21:07.102Z,18.47
2023-05-01T15:23:34.688Z,18.80
2023-05-01T15:26:02.304Z,18.85
2023-05-01T15:28:30.261Z,18.48
2023-05-01T15:30:57.990Z,18.95
2023-05-01T15:33:25.739Z,19.03
2023-05-01T15:35:53.570Z,19.16
2023-05-01T15:38:21.668Z,19.03
2023-05-01T15:40:50.131Z,18.98
2023-05-01T15:43:17.889Z,19.06
2023-05-01T15:45:45.800Z,19.40
2023-05-01T15:48:13.559Z,19.84
2023-05-01T15:50:41.365Z,19.72
2023-05-01T15:53:08.982Z,19.94
2023-05-01T15:55:36.784Z,19.97
2023-05-01T15:58:04.796Z,20.15
2023-05-01T16:00:32.876Z,20.27
2023-05-01T16:03:01.588Z,20.60
2023-05-01T16:05:29.520Z,20.66
2023-05-01T16:08:00.024Z,20.48
2023-05-01T16:10:27.943Z,20.68
2023-05-01T16:12:55.624Z,21.19
2023-05-01T16:15:23.253Z,21.37
2023-05-01T16:17:54.932Z,21.76
2023-05-01T16:20:22.855Z,22.16
2023-05-01T16:22:51.334Z,22.10
2023-05-01T16:25:19.051Z,22.27
2023-05-01T16:27:47.430Z,22.72
2023-05-01T16:30:15.064Z,22.90
2023-05-01T16:32:43.442Z,22.88
2023-05-01T16:35:17.968Z,23.09
2023-05-01T16:37:45.924Z,23.31
2023-05-01T16:40:17.362Z,23.25
2023-05-01T16:42:54.731Z,23.21
2023-05-01T16:45:22.457Z,23.29
2023-05-01T16:47:50.109Z,23.50
2023-05-01T16:50:17.747Z,23.75
2023-05-01T16:52:45.359Z,24.06
2023-05-01T16:55:13.167Z,24.02
2023-05-01T16:57:43.653Z,24.41
2023-05-01T17:00:14.024Z,24.68
2023-05-01T17:02:41.629Z,24.68
2023-05-01T17:05:09.744Z,24.77
2023-05-01T17:07:37.348Z,24.75
2023-05-01T17:10:05.898Z,25.21
2023-05-01T17:12:33.468Z,25.38
2023-05-01T17:15:01.091Z,25.54
2023-05-01T17:17:28.764Z,25.83
2023-05-01T17:19:56.495Z,26.03
2023-05-01T17:22:24.313Z,26.38
2023-05-01T17:24:51.942Z,26.75
2023-05-01T17:27:19.524Z,26.73
2023-05-01T17:29:47.179Z,27.04
2023-05-01T17:32:20.352Z,27.04
2023-05-01T17:35:01.277Z,27.21
2023-05-01T17:37:29.028Z,27.67
2023-05-01T17:39:56.841Z,27.67
2023-05-01T17:42:24.780Z,27.99
2023-05-01T17:44:52.431Z,28.22
2023-05-01T17:47:20.271Z,28.48
2023-05-01T17:49:47.907Z,28.88
2023-05-01T17:52:15.527Z,29.19
2023-05-01T17:54:43.110Z,29.34
2023-05-01T17:57:10.925Z,29.80
2023-05-01T17:59:38.705Z,30.10
2023-05-01T18:02:06.361Z,30.40
2023-05-01T18:04:36.129Z,30.71
2023-05-01T18:07:04.505Z,30.87
2023-05-01T18:09:32.150Z,31.30
2023-05-01T18:11:59.718Z,31.51
2023-05-01T18:14:28.177Z,31.93
2023-05-01T18:16:56.097Z,32.12
2023-05-01T18:19:23.730Z,32.49
2023-05-01T18:21:51.369Z,32.77
2023-05-01T18:24:18.985Z,33.01
2023-05-01T18:26:46.586Z,33.30
2023-05-01T18:29:14.243Z,33.68
2023-05-01T18:31:41.979Z,33.71
2023-05-01T18:34:11.905Z,33.98
2023-05-01T18:36:39.508Z,34.29
2023-05-01T18:39:07.133Z,34.40
2023-05-01T18:41:34.806Z,34.88
2023-05-01T18:44:04.024Z,34.73
2023-05-01T18:46:31.813Z,35.07
2023-05-01T18:48:59.956Z,35.55
2023-05-01T18:51:27.689Z,35.58
2023-05-01T18:53:55.294Z,35.82
2023-05-01T18:56:24.355Z,35.92
2023-05-01T18:58:51.957Z,36.25
2023-05-01T19:01:20.793Z,36.35
2023-05-01T19:03:48.671Z,36.80
2023-05-01T19:06:16.330Z,36.87
2023-05-01T19:08:44.008Z,37.09
2023-05-01T19:11:11.768Z,37.58
2023-05-01T19:13:39.440Z,37.89
2023-05-01T19:16:07.184Z,38.15
2023-05-01T19:18:37.489Z,38.98
2023-05-01T19:21:05.712Z,38.89
2023-05-01T19:23:35.525Z,38.92
2023-05-01T19:26:04.776Z,39.02
2023-05-01T19:28:34.218Z,39.19
2023-05-01T19:31:04.441Z,39.48
2023-05-01T19:33:35.435Z,39.95
2023-05-01T19:36:05.228Z,40.51
2023-05-01T19:38:37.311Z,40.84
2023-05-01T19:41:07.195Z,40.85
2023-05-01T19:43:36.604Z,41.47
2023-05-01T19:46:10.683Z,41.42
2023-05-01T19:48:40.807Z,41.85
2023-05-01T19:51:08.447Z,41.63
2023-05-01T19:53:36.336Z,41.98
2023-05-01T19:56:09.814Z,42.03
2023-05-01T19:58:38.963Z,42.19
2023-05-01T20:01:09.385Z,42.58
2023-05-01T20:03:37.107Z,42.90
2023-05-01T20:06:06.560Z,42.91
2023-05-01T20:08:34.851Z,43.28
2023-05-01T20:11:02.480Z,43.64
2023-05-01T20:13:30.534Z,43.71
2023-05-01T20:15:58.248Z,43.97
2023-05-01T20:18:25.964Z,43.96
2023-05-01T20:20:53.640Z,44.18
2023-05-01T20:23:23.468Z,44.60
2023-05-01T20:25:53.880Z,44.94
2023-05-01T20:28:21.521Z,45.10
2023-05-01T20:30:49.351Z,44.92
2023-05-01T20:33:17.763Z,45.08
2023-05-01T20:35:46.065Z,44.31
2023-05-01T20:38:13.845Z,43.85
2023-05-01T20:40:42.271Z,43.82
2023-05-01T20:43:09.897Z,43.86
2023-05-01T20:45:37.699Z,44.07
2023-05-01T20:48:05.612Z,44.07
2023-05-01T20:50:33.394Z,44.28
2023-05-01T20:53:01.002Z,44.28
2023-05-01T20:55:29.932Z,44.25
2023-05-01T20:57:57.559Z,44.27
2023-05-01T21:00:25.356Z,44.26
2023-05-01T21:02:53.196Z,44.46
2023-05-01T21:05:21.021Z,44.45
2023-05-01T21:07:48.777Z,44.44
2023-05-01T21:10:16.706Z,44.40
2023-05-01T21:12:44.355Z,44.38
2023-05-01T21:15:12.100Z,44.48
2023-05-01T21:17:40.150Z,44.66
2023-05-01T21:20:12.882Z,44.90
2023-05-01T21:22:41.458Z,44.89
2023-05-01T21:25:09.508Z,44.78
2023-05-01T21:27:39.741Z,44.97
2023-05-01T21:30:08.693Z,45.25
2023-05-01T21:32:40.287Z,45.20
2023-05-01T21:35:09.922Z,45.07
2023-05-01T21:37:37.707Z,44.93
2023-05-01T21:40:06.484Z,44.92
2023-05-01T21:42:40.010Z,45.31
2023-05-01T21:45:08.909Z,45.32
2023-05-01T21:47:45.652Z,45.57
2023-05-01T21:50:18.609Z,45.46
2023-05-01T21:52:48.047Z,45.71
2023-05-01T21:55:25.606Z,45.51
2023-05-01T21:57:53.462Z,45.61
2023-05-01T22:00:21.259Z,45.71
2023-05-01T22:02:49.877Z,45.96
2023-05-01T22:05:19.313Z,46.16
2023-05-01T22:07:47.388Z,46.19
2023-05-01T22:10:18.620Z,46.51
2023-05-01T22:12:46.947Z,46.49
2023-05-01T22:15:15.635Z,46.39
2023-05-01T22:17:43.890Z,46.65
2023-05-01T22:20:11.856Z,46.70
2023-05-01T22:22:40.314Z,46.67
2023-05-01T22:25:08.511Z,46.98
2023-05-01T22:27:36.430Z,46.94
2023-05-01T22:30:04.757Z,46.97
2023-05-01T22:32:32.537Z,47.18
2023-05-01T22:35:00.371Z,47.15
2023-05-01T22:37:28.044Z,47.20
2023-05-01T22:39:55.634Z,47.61
2023-05-01T22:42:23.422Z,47.73
2023-05-01T22:44:51.034Z,47.59
2023-05-01T22:47:18.674Z,47.77
2023-05-01T22:49:46.325Z,47.81
2023-05-01T22:52:13.896Z,47.69
2023-05-01T22:54:41.497Z,48.08
2023-05-01T22:57:10.359Z,48.17
2023-05-01T22:59:39.685Z,48.17
2023-05-01T23:02:07.329Z,48.65
2023-05-01T23:04:35.047Z,48.54
2023-05-01T23:07:02.774Z,48.84
2023-05-01T23:09:32.214Z,48.89
2023-05-01T23:12:00.031Z,49.14
2023-05-01T23:14:27.673Z,49.36
2023-05-01T23:16:55.294Z,49.36
2023-05-01T23:19:23.850Z,49.63
2023-05-01T23:22:04.088Z,49.73
2023-05-01T23:24:44.696Z,49.72
2023-05-01T23:27:13.550Z,49.93
2023-05-01T23:29:41.517Z,49.93
2023-05-01T23:32:10.833Z,50.20
2023-05-01T23:34:38.792Z,50.28
2023-05-01T23:37:06.937Z,50.17
2023-05-01T23:39:34.552Z,50.05
2023-05-01T23:42:02.571Z,50.46
2023-05-01T23:44:30.467Z,50.77
2023-05-01T23:46:58.207Z,50.80
2023-05-01T23:49:25.815Z,50.92
2023-05-01T23:51:53.460Z,51.31
2023-05-01T23:54:21.056Z,51.09
2023-05-01T23:56:48.645Z,51.62
2023-05-01T23:59:16.634Z,51.34
